createdAt,value
2022-11-25T00:00:02.037Z,6.38
2022-11-25T00:05:02.079Z,6.3
2022-11-25T00:10:02.167Z,6.5
2022-11-25T00:15:01.767Z,6.19
2022-11-25T00:20:01.695Z,6.12
2022-11-25T00:25:01.567Z,6.26
2022-11-25T00:30:01.593Z,6.33
2022-11-25T00:35:01.659Z,6.55
2022-11-25T00:40:01.529Z,6.63
2022-11-25T00:45:02.220Z,6.82
2022-11-25T00:50:01.998Z,6.91
2022-11-25T00:55:01.781Z,6.84
2022-11-25T01:00:01.393Z,6.93
2022-11-25T01:05:01.415Z,7.09
2022-11-25T01:10:01.524Z,7.05
2022-11-25T01:15:01.426Z,7.17
2022-11-25T01:20:01.669Z,7.09
2022-11-25T01:25:01.706Z,7.22
2022-11-25T01:30:01.691Z,7.44
2022-11-25T01:35:01.724Z,7.64
2022-11-25T01:40:01.780Z,7.82
2022-11-25T01:45:01.897Z,7.94
2022-11-25T01:50:01.957Z,8.02
2022-11-25T01:55:01.759Z,7.96
2022-11-25T02:00:01.701Z,7.88
2022-11-25T02:05:01.626Z,8
2022-11-25T02:10:01.891Z,8.13
2022-11-25T02:15:01.317Z,8.23
2022-11-25T02:20:01.986Z,8.39
2022-11-25T02:25:01.942Z,8.49
2022-11-25T02:30:07.037Z,8.58
2022-11-25T02:35:02.196Z,8.62
2022-11-25T02:40:02.200Z,8.59
2022-11-25T02:45:01.925Z,8.49
2022-11-25T02:50:01.771Z,8.45
2022-11-25T02:55:01.714Z,8.38
2022-11-25T03:00:01.539Z,8.32
2022-11-25T03:05:01.711Z,8.31
2022-11-25T03:10:01.501Z,8.22
2022-11-25T03:15:02.266Z,8.2
2022-11-25T03:20:02.236Z,8.17
2022-11-25T03:25:01.979Z,8.07
2022-11-25T03:30:01.723Z,8.01
2022-11-25T03:35:01.954Z,7.96
2022-11-25T03:40:01.894Z,7.96
2022-11-25T03:45:02.482Z,7.98
2022-11-25T03:50:01.995Z,7.91
2022-11-25T03:55:01.936Z,7.9
2022-11-25T04:00:02.048Z,7.96
2022-11-25T04:05:02.078Z,7.97
2022-11-25T04:10:01.435Z,7.94
2022-11-25T04:15:02.376Z,7.96
2022-11-25T04:20:01.696Z,7.93
2022-11-25T04:25:01.964Z,7.87
2022-11-25T04:30:01.955Z,7.85
2022-11-25T04:35:01.556Z,7.86
2022-11-25T04:40:01.735Z,7.86
2022-11-25T04:45:21.958Z,7.82
2022-11-25T04:50:02.260Z,7.77
2022-11-25T04:55:02.250Z,7.64
2022-11-25T05:00:01.740Z,7.65
2022-11-25T05:05:01.895Z,7.79
2022-11-25T05:10:01.442Z,7.53
2022-11-25T05:15:02.018Z,7.62
2022-11-25T05:20:02.290Z,7.58
2022-11-25T05:25:01.971Z,7.44
2022-11-25T05:30:01.943Z,7.39
2022-11-25T05:35:02.121Z,7.42
2022-11-25T05:40:02.238Z,7.35
2022-11-25T05:45:02.024Z,7.31
2022-11-25T05:50:02.100Z,7.39
2022-11-25T05:55:01.879Z,7.42
2022-11-25T06:00:02.087Z,7.42
2022-11-25T06:05:02.174Z,7.4
2022-11-25T06:10:03.439Z,7.33
2022-11-25T06:15:02.462Z,7.33
2022-11-25T06:20:01.480Z,7.32
2022-11-25T06:25:04.135Z,7.29
2022-11-25T06:30:02.314Z,7.48
2022-11-25T06:35:02.271Z,7.62
2022-11-25T06:40:02.052Z,7.73
2022-11-25T06:45:02.394Z,7.79
2022-11-25T06:50:02.122Z,7.77
2022-11-25T06:55:02.379Z,7.79
2022-11-25T07:00:02.285Z,7.78
2022-11-25T07:05:02.170Z,7.84
2022-11-25T07:10:01.889Z,7.79
2022-11-25T07:15:01.554Z,7.77
2022-11-25T07:20:02.100Z,7.74
2022-11-25T07:25:02.305Z,7.73
2022-11-25T07:31:28.272Z,7.69
2022-11-25T07:35:01.865Z,7.56
2022-11-25T07:40:01.831Z,7.48
2022-11-25T07:45:01.958Z,7.45
2022-11-25T07:50:01.946Z,7.35
2022-11-25T07:55:02.196Z,7.35
2022-11-25T08:00:01.965Z,7.31
2022-11-25T08:05:02.249Z,7.34
2022-11-25T08:10:02.314Z,7.34
2022-11-25T08:15:02.112Z,7.44
2022-11-25T08:20:02.215Z,7.58
2022-11-25T08:25:01.777Z,7.62
2022-11-25T08:30:02.325Z,7.73
2022-11-25T08:35:01.955Z,7.7
2022-11-25T08:40:02.037Z,7.64
2022-11-25T08:45:02.147Z,7.74
2022-11-25T08:50:02.307Z,7.83
2022-11-25T08:55:01.684Z,8.03
2022-11-25T09:00:02.036Z,8.09
2022-11-25T09:05:02.371Z,8.22
2022-11-25T09:10:01.778Z,8.22
2022-11-25T09:15:02.099Z,8.39
2022-11-25T09:20:02.406Z,8.55
2022-11-25T09:25:02.187Z,8.7
2022-11-25T09:30:02.321Z,8.71
2022-11-25T09:35:02.377Z,8.87
2022-11-25T09:40:01.536Z,8.89
2022-11-25T09:45:01.438Z,8.93
2022-11-25T09:50:02.240Z,9.04
2022-11-25T09:55:01.961Z,9.11
2022-11-25T10:00:02.129Z,9.19
2022-11-25T10:05:01.574Z,9.08
2022-11-25T10:10:01.978Z,9.33
2022-11-25T10:15:01.805Z,9.46
2022-11-25T10:20:01.863Z,9.36
2022-11-25T10:25:02.099Z,9.42
2022-11-25T10:30:01.608Z,9.33
2022-11-25T10:35:01.887Z,9.52
2022-11-25T10:40:01.990Z,9.44
2022-11-25T10:45:02.234Z,9.41
2022-11-25T10:50:01.442Z,9.5
2022-11-25T10:55:02.132Z,9.49
2022-11-25T11:00:01.575Z,9.66
2022-11-25T11:05:01.960Z,9.85
2022-11-25T11:10:01.957Z,9.89
2022-11-25T11:15:01.957Z,9.98
2022-11-25T11:20:02.227Z,9.99
2022-11-25T11:25:01.609Z,9.96
2022-11-25T11:30:02.208Z,9.94
2022-11-25T11:35:02.090Z,9.89
2022-11-25T11:40:01.931Z,9.71
2022-11-25T11:45:01.682Z,9.67
2022-11-25T11:50:01.429Z,9.59
2022-11-25T11:55:01.876Z,9.74
2022-11-25T12:00:02.152Z,9.85
2022-11-25T12:05:01.447Z,9.99
2022-11-25T12:10:02.374Z,10.09
2022-11-25T12:15:02.301Z,10.22
2022-11-25T12:20:02.303Z,10.35
2022-11-25T12:25:02.270Z,10.35
2022-11-25T12:30:01.889Z,10.42
2022-11-25T12:35:02.209Z,10.46
2022-11-25T12:40:02.101Z,10.42
2022-11-25T12:45:01.417Z,10.38
2022-11-25T12:50:02.150Z,10.38
2022-11-25T12:55:02.382Z,10.42
2022-11-25T13:00:32.916Z,10.44
2022-11-25T13:10:02.426Z,10.42
2022-11-25T13:10:55.632Z,10.42
2022-11-25T13:15:02.947Z,10.42
2022-11-25T13:20:02.211Z,10.27
2022-11-25T13:25:01.577Z,10.22
2022-11-25T13:30:02.172Z,10.19
2022-11-25T13:35:01.972Z,10.2
2022-11-25T13:40:01.537Z,10.26
2022-11-25T13:45:02.171Z,10.28
2022-11-25T13:50:02.040Z,10.42
2022-11-25T13:55:02.130Z,10.43
2022-11-25T14:00:02.092Z,10.48
2022-11-25T14:05:02.285Z,10.53
2022-11-25T14:10:01.463Z,10.49
2022-11-25T14:15:02.154Z,10.5
2022-11-25T14:20:02.497Z,10.48
2022-11-25T14:25:02.099Z,10.46
2022-11-25T14:30:02.365Z,10.4
2022-11-25T14:35:01.460Z,10.34
2022-11-25T14:40:02.041Z,10.24
2022-11-25T14:45:01.917Z,10.22
2022-11-25T14:50:33.670Z,10.1
2022-11-25T14:55:02.075Z,9.99
2022-11-25T15:00:02.382Z,9.88
2022-11-25T15:05:01.464Z,9.69
2022-11-25T15:10:02.251Z,9.65
2022-11-25T15:15:02.410Z,9.54
2022-11-25T15:20:02.061Z,9.51
2022-11-25T15:25:02.317Z,9.39
2022-11-25T15:30:02.491Z,9.19
2022-11-25T15:35:01.440Z,9.03
2022-11-25T15:40:01.905Z,8.85
2022-11-25T15:45:05.260Z,8.76
2022-11-25T15:50:01.410Z,8.65
2022-11-25T15:55:02.292Z,8.56
2022-11-25T16:00:02.469Z,8.47
2022-11-25T16:05:04.672Z,8.46
2022-11-25T16:10:01.475Z,8.49
2022-11-25T16:15:02.305Z,8.63
2022-11-25T16:20:02.366Z,8.66
2022-11-25T16:25:02.897Z,8.68
2022-11-25T16:30:01.923Z,8.7
2022-11-25T16:35:02.206Z,8.73
2022-11-25T16:40:02.355Z,8.78
2022-11-25T16:45:02.480Z,8.78
2022-11-25T16:50:01.744Z,8.78
2022-11-25T16:55:01.982Z,8.75
2022-11-25T17:00:02.112Z,8.76
2022-11-25T17:05:02.076Z,8.76
2022-11-25T17:10:01.466Z,8.64
2022-11-25T17:15:02.294Z,8.6
2022-11-25T17:20:02.372Z,8.59
2022-11-25T17:25:02.448Z,8.59
2022-11-25T17:30:02.351Z,8.68
2022-11-25T17:35:01.532Z,8.68
2022-11-25T17:40:01.485Z,8.65
2022-11-25T17:45:01.741Z,8.36
2022-11-25T17:50:01.922Z,8.38
2022-11-25T17:55:02.106Z,8.32
2022-11-25T18:00:01.968Z,8.32
2022-11-25T18:05:02.233Z,8.17
2022-11-25T18:10:01.578Z,8.19
2022-11-25T18:15:02.114Z,8.12
2022-11-25T18:20:02.339Z,8.08
2022-11-25T18:25:07.991Z,8.09
2022-11-25T18:30:01.473Z,8.11
2022-11-25T18:35:01.798Z,8.09
2022-11-25T18:40:02.112Z,8.03
2022-11-25T18:45:02.207Z,7.98
2022-11-25T18:50:01.716Z,7.87
2022-11-25T18:55:02.033Z,7.87
2022-11-25T19:00:24.767Z,7.85
2022-11-25T19:05:01.934Z,7.86
2022-11-25T19:10:02.182Z,7.83
2022-11-25T19:15:02.321Z,7.85
2022-11-25T19:20:01.535Z,7.94
2022-11-25T19:25:01.972Z,8.08
2022-11-25T19:30:01.887Z,8.11
2022-11-25T19:35:01.942Z,8.18
2022-11-25T19:40:02.377Z,8.17
2022-11-25T19:45:02.428Z,8.41
2022-11-25T19:50:02.072Z,8.37
2022-11-25T19:55:01.638Z,8.17
2022-11-25T20:00:02.307Z,8.09
2022-11-25T20:05:01.599Z,7.98
2022-11-25T20:10:01.852Z,8.19
2022-11-25T20:15:01.908Z,7.91
2022-11-25T20:20:02.386Z,8.01
2022-11-25T20:25:01.748Z,7.74
2022-11-25T20:30:02.361Z,7.81
2022-11-25T20:35:02.061Z,7.67
2022-11-25T20:40:01.904Z,7.62
2022-11-25T20:45:01.964Z,7.32
2022-11-25T20:50:02.193Z,7.16
2022-11-25T20:55:02.092Z,7.05
2022-11-25T21:00:02.220Z,7
2022-11-25T21:05:01.586Z,6.85
2022-11-25T21:10:02.249Z,6.8
2022-11-25T21:15:02.432Z,6.87
2022-11-25T21:20:02.109Z,6.74
2022-11-25T21:25:02.249Z,6.84
2022-11-25T21:30:02.437Z,6.81
2022-11-25T21:35:01.978Z,6.64
2022-11-25T21:40:02.243Z,6.55
2022-11-25T21:45:02.189Z,6.54
2022-11-25T21:50:01.894Z,6.55
2022-11-25T21:55:02.133Z,6.35
2022-11-25T22:00:01.749Z,6.49
2022-11-25T22:05:01.487Z,6.5
2022-11-25T22:10:02.284Z,6.35
2022-11-25T22:15:02.369Z,6.31
2022-11-25T22:20:02.387Z,6.37
2022-11-25T22:25:01.516Z,6.29
2022-11-25T22:30:01.915Z,6.28
2022-11-25T22:35:02.250Z,6.2
2022-11-25T22:40:01.997Z,6.3
2022-11-25T22:45:01.740Z,6.24
2022-11-25T22:50:01.789Z,6.19
2022-11-25T22:55:01.675Z,6.14
2022-11-25T23:00:02.027Z,6.06
2022-11-25T23:05:01.866Z,6.07
2022-11-25T23:10:02.123Z,5.99
2022-11-25T23:15:02.072Z,5.94
2022-11-25T23:20:02.193Z,5.87
2022-11-25T23:25:02.174Z,5.79
2022-11-25T23:30:02.339Z,5.82
2022-11-25T23:35:02.089Z,5.82
2022-11-25T23:40:02.024Z,5.75
2022-11-25T23:45:01.539Z,5.7
2022-11-25T23:50:01.562Z,5.63
2022-11-25T23:55:01.907Z,5.6
